Time;durP1;ratioP1;P1;durP2;ratioP2;P2;SDS_P1;SDS_P2;PMS_P1;PMS_P2;Temp;Humidity;BMP_temperature;BMP_pressure;BME280_temperature;BME280_humidity;BME280_pressure;Samples;Min_cycle;Max_cycle;Signal;HPM_P1;HPM_P2
2021/06/12 00:00:09;;;;;;;6.20;2.53;;;537.80;1689.60;;;;;;5074148;28;20029;-58
2021/06/12 00:02:35;;;;;;;2.72;2.42;;;537.80;1689.60;;;;;;5073981;28;20032;-57
2021/06/12 00:05:01;;;;;;;4.50;2.60;;;537.80;1689.60;;;;;;5074213;28;20103;-58
2021/06/12 00:07:27;;;;;;;3.05;2.58;;;537.80;1689.60;;;;;;5074053;28;20103;-57
2021/06/12 00:09:53;;;;;;;8.00;3.03;;;537.80;1689.60;;;;;;5073686;28;20043;-58
2021/06/12 00:12:19;;;;;;;5.57;2.67;;;537.70;1689.60;;;;;;5073714;28;20027;-58
2021/06/12 00:14:44;;;;;;;3.45;2.70;;;537.70;1689.60;;;;;;5073786;28;20096;-58
2021/06/12 00:17:10;;;;;;;3.00;2.60;;;537.70;1715.20;;;;;;5073812;28;20101;-57
2021/06/12 00:19:36;;;;;;;5.22;2.63;;;537.70;1715.20;;;;;;5073843;28;20063;-68
2021/06/12 00:22:02;;;;;;;4.70;3.20;;;537.60;1715.20;;;;;;5073842;28;20031;-57
2021/06/12 00:24:28;;;;;;;6.47;3.05;;;537.60;1715.20;;;;;;5073772;28;20051;-58
2021/06/12 00:26:54;;;;;;;5.22;2.97;;;537.60;1715.20;;;;;;5073673;28;20017;-59
2021/06/12 00:29:20;;;;;;;5.47;2.65;;;537.60;1715.20;;;;;;5073753;28;20451;-58
2021/06/12 00:31:46;;;;;;;4.25;2.88;;;537.60;1715.20;;;;;;5073730;28;20026;-58
2021/06/12 00:34:12;;;;;;;4.65;2.90;;;537.60;1715.20;;;;;;5073541;28;20039;-57
2021/06/12 00:36:38;;;;;;;5.57;3.17;;;512.90;1715.20;;;;;;5073580;28;20021;-58
2021/06/12 00:39:05;;;;;;;3.95;2.85;;;512.90;1715.20;;;;;;5072250;28;20446;-57
2021/06/12 00:41:31;;;;;;;5.40;2.95;;;512.80;1715.20;;;;;;5073570;28;20031;-57
2021/06/12 00:43:57;;;;;;;6.20;3.30;;;512.80;1715.20;;;;;;5073390;28;20111;-57
2021/06/12 00:46:23;;;;;;;7.07;3.40;;;512.80;1715.20;;;;;;5072272;28;20077;-58
2021/06/12 00:48:51;;;;;;;6.47;3.25;;;512.80;1715.20;;;;;;5073698;28;20024;-58
2021/06/12 00:51:17;;;;;;;5.15;3.38;;;512.70;1740.80;;;;;;5073492;28;20442;-57
2021/06/12 00:53:43;;;;;;;4.07;3.05;;;512.70;1740.80;;;;;;5071922;28;20035;-64
2021/06/12 00:56:14;;;;;;;5.60;3.25;;;512.60;1740.80;;;;;;5073447;28;20024;-57
2021/06/12 00:58:42;;;;;;;6.13;3.83;;;512.70;1740.80;;;;;;5073173;28;20048;-58
2021/06/12 01:01:10;;;;;;;5.68;3.40;;;512.60;1740.80;;;;;;5073291;28;20385;-57
2021/06/12 01:03:39;;;;;;;5.18;3.38;;;512.60;1740.80;;;;;;5073156;28;20119;-57
2021/06/12 01:06:07;;;;;;;4.53;3.22;;;512.60;1740.80;;;;;;5073229;28;20020;-58
2021/06/12 01:08:33;;;;;;;4.75;3.15;;;512.50;1766.40;;;;;;5072785;28;20111;-58
2021/06/12 01:10:59;;;;;;;5.78;3.50;;;512.50;1766.40;;;;;;5073419;28;20116;-58
2021/06/12 01:13:34;;;;;;;6.15;3.13;;;512.40;1766.40;;;;;;5073154;28;20043;-57
2021/06/12 01:16:09;;;;;;;5.50;3.33;;;512.50;1766.40;;;;;;5073187;28;20032;-57
2021/06/12 01:18:38;;;;;;;4.30;3.35;;;512.30;1766.40;;;;;;5072920;28;20482;-57
2021/06/12 01:21:32;;;;;;;4.85;3.60;;;512.50;1740.80;;;;;;5073122;28;20025;-57
2021/06/12 01:24:16;;;;;;;5.22;3.53;;;512.50;1766.40;;;;;;5077113;28;20028;-57
2021/06/12 01:27:06;;;;;;;5.93;3.20;;;512.50;1766.40;;;;;;5075863;28;20158;-57
2021/06/12 01:29:53;;;;;;;4.47;3.58;;;512.40;1766.40;;;;;;5076959;28;20493;-57
2021/06/12 01:32:21;;;;;;;4.15;3.28;;;512.50;1766.40;;;;;;5076888;28;20035;-57
2021/06/12 01:34:48;;;;;;;7.00;3.40;;;512.50;1766.40;;;;;;5076966;28;20028;-57
2021/06/12 01:37:17;;;;;;;6.15;3.70;;;512.50;1792.00;;;;;;5076913;28;20032;-58
2021/06/12 01:39:44;;;;;;;3.63;3.13;;;512.30;1766.40;;;;;;5077152;28;20025;-57
2021/06/12 01:42:12;;;;;;;7.28;3.97;;;512.30;1792.00;;;;;;5076421;28;20021;-57
2021/06/12 01:44:40;;;;;;;6.22;4.25;;;512.30;1817.60;;;;;;5076692;28;20017;-57
2021/06/12 01:47:07;;;;;;;6.50;4.15;;;512.20;1792.00;;;;;;5076716;28;20121;-58
2021/06/12 01:49:35;;;;;;;4.35;3.53;;;512.20;1792.00;;;;;;5076645;28;20020;-57
2021/06/12 01:52:02;;;;;;;4.45;3.55;;;512.20;1792.00;;;;;;5076848;28;20024;-57
2021/06/12 01:54:30;;;;;;;6.55;4.00;;;512.10;1817.60;;;;;;5076416;28;20067;-57
2021/06/12 01:56:57;;;;;;;8.68;3.95;;;512.10;1817.60;;;;;;5076421;28;20115;-57
2021/06/12 01:59:25;;;;;;;5.85;4.03;;;512.00;1817.60;;;;;;5076176;28;20048;-57
2021/06/12 02:01:52;;;;;;;4.95;4.28;;;512.10;1817.60;;;;;;5076565;28;20024;-57
2021/06/12 02:04:20;;;;;;;8.85;4.20;;;512.10;1792.00;;;;;;5076697;28;20071;-57
2021/06/12 02:06:47;;;;;;;6.72;4.63;;;512.10;1817.60;;;;;;5076272;28;20465;-57
2021/06/12 02:09:16;;;;;;;5.15;4.45;;;512.10;1792.00;;;;;;5076596;28;20028;-57
2021/06/12 02:11:42;;;;;;;15.32;11.98;;;512.10;1792.00;;;;;;5076286;28;20046;-57
2021/06/12 02:14:09;;;;;;;27.92;24.92;;;512.10;1792.00;;;;;;5075981;28;20028;-57
2021/06/12 02:16:38;;;;;;;13.13;11.68;;;512.00;1817.60;;;;;;5076681;28;20411;-57
2021/06/12 02:19:05;;;;;;;7.82;6.57;;;512.00;1817.60;;;;;;5076063;28;20064;-57
2021/06/12 02:21:34;;;;;;;14.60;5.75;;;487.30;1843.20;;;;;;5076364;28;20016;-57
2021/06/12 02:24:00;;;;;;;6.60;5.57;;;487.20;1843.20;;;;;;5074640;28;20029;-57
2021/06/12 02:26:28;;;;;;;6.43;5.15;;;487.20;1817.60;;;;;;5076324;28;20482;-57
2021/06/12 02:28:55;;;;;;;7.53;5.13;;;487.20;1817.60;;;;;;5075908;28;20085;-57
2021/06/12 02:31:28;;;;;;;6.18;5.57;;;487.20;1843.20;;;;;;5076317;28;20473;-57
2021/06/12 02:33:54;;;;;;;7.60;5.45;;;487.20;1843.20;;;;;;5075002;28;20024;-57
2021/06/12 02:36:20;;;;;;;8.10;5.10;;;487.10;1843.20;;;;;;5075842;28;20028;-57
2021/06/12 02:38:47;;;;;;;10.40;5.40;;;487.00;1868.80;;;;;;5075631;28;20473;-57
2021/06/12 02:41:14;;;;;;;6.30;5.47;;;487.00;1868.80;;;;;;5076055;28;20020;-57
2021/06/12 02:43:40;;;;;;;7.57;5.35;;;486.90;1868.80;;;;;;5075623;28;20021;-57
2021/06/12 02:46:12;;;;;;;6.00;5.18;;;487.00;1868.80;;;;;;5075681;28;20373;-57
2021/06/12 02:48:38;;;;;;;6.10;5.07;;;487.00;1868.80;;;;;;5075601;28;20017;-57
2021/06/12 02:51:06;;;;;;;6.18;4.93;;;486.90;1868.80;;;;;;5075888;28;20370;-57
2021/06/12 02:53:36;;;;;;;8.10;5.45;;;486.90;1868.80;;;;;;5075476;28;20044;-59
2021/06/12 02:56:04;;;;;;;7.00;5.53;;;487.00;1868.80;;;;;;5075515;28;20017;-57
2021/06/12 02:58:31;;;;;;;8.88;5.63;;;486.90;1868.80;;;;;;5075052;28;20448;-57
2021/06/12 03:00:58;;;;;;;10.15;5.65;;;486.90;1894.40;;;;;;5075383;28;20095;-57
2021/06/12 03:03:26;;;;;;;5.65;4.78;;;486.80;1894.40;;;;;;5075197;28;20026;-58
2021/06/12 03:05:58;;;;;;;6.50;5.15;;;486.90;1868.80;;;;;;5075220;28;20048;-57
2021/06/12 03:08:36;;;;;;;9.43;5.40;;;486.90;1894.40;;;;;;5075296;28;20465;-57
2021/06/12 03:11:05;;;;;;;10.70;5.90;;;486.90;1868.80;;;;;;5075119;28;20028;-57
2021/06/12 03:13:32;;;;;;;8.43;5.35;;;486.90;1868.80;;;;;;5075288;28;20056;-57
2021/06/12 03:16:00;;;;;;;10.27;5.68;;;486.90;1868.80;;;;;;5075312;28;20027;-57
2021/06/12 03:18:27;;;;;;;8.63;5.65;;;486.80;1868.80;;;;;;5074854;28;20127;-58
2021/06/12 03:21:01;;;;;;;6.25;5.43;;;486.80;1868.80;;;;;;5074970;28;20504;-57
2021/06/12 03:23:29;;;;;;;7.57;6.15;;;486.80;1868.80;;;;;;5074995;28;20028;-57
2021/06/12 03:25:56;;;;;;;10.20;6.22;;;486.80;1868.80;;;;;;5074808;28;20073;-58
2021/06/12 03:28:22;;;;;;;7.45;5.97;;;486.80;1868.80;;;;;;5074786;28;20059;-57
2021/06/12 03:30:49;;;;;;;8.50;6.82;;;486.80;1868.80;;;;;;5074726;28;20059;-57
2021/06/12 03:33:16;;;;;;;9.38;7.68;;;486.80;1868.80;;;;;;5074743;28;20028;-57
2021/06/12 03:35:42;;;;;;;11.13;8.35;;;486.80;1868.80;;;;;;5074702;28;20474;-57
2021/06/12 03:38:13;;;;;;;8.15;6.78;;;486.80;1868.80;;;;;;5074552;28;20043;-57
2021/06/12 03:40:40;;;;;;;8.43;6.57;;;486.80;1868.80;;;;;;5074863;28;20497;-57
2021/06/12 03:43:07;;;;;;;12.13;7.93;;;486.70;1894.40;;;;;;5074770;28;20020;-57
2021/06/12 03:45:40;;;;;;;12.90;8.00;;;486.70;1894.40;;;;;;5074397;28;20099;-57
2021/06/12 03:48:08;;;;;;;8.65;6.25;;;486.70;1894.40;;;;;;5074432;28;20029;-57
2021/06/12 03:50:34;;;;;;;6.85;6.13;;;486.60;1894.40;;;;;;5074337;28;20044;-57
2021/06/12 03:53:02;;;;;;;8.27;5.93;;;486.60;1894.40;;;;;;5074203;28;20031;-57
2021/06/12 03:55:28;;;;;;;6.57;5.35;;;486.50;1945.60;;;;;;5074861;28;20012;-57
2021/06/12 03:57:54;;;;;;;7.28;5.35;;;486.50;1945.60;;;;;;5073911;28;20037;-59
2021/06/12 04:00:20;;;;;;;9.18;5.28;;;486.50;1920.00;;;;;;5072980;28;20481;-68
2021/06/12 04:02:46;;;;;;;7.57;5.60;;;486.50;1920.00;;;;;;5074031;28;20552;-68
2021/06/12 04:05:12;;;;;;;7.35;5.63;;;486.50;1920.00;;;;;;5074165;28;20097;-68
2021/06/12 04:07:40;;;;;;;9.73;5.00;;;486.60;1920.00;;;;;;5074046;28;20024;-68
2021/06/12 04:10:10;;;;;;;7.55;5.65;;;486.60;1920.00;;;;;;5073922;28;20078;-58
2021/06/12 04:12:36;;;;;;;10.30;5.03;;;486.60;1920.00;;;;;;5073867;28;20488;-66
2021/06/12 04:15:02;;;;;;;8.70;4.75;;;486.60;1920.00;;;;;;5073995;28;20377;-57
2021/06/12 04:17:28;;;;;;;10.80;5.60;;;486.70;1920.00;;;;;;5073595;28;20486;-58
2021/06/12 04:19:55;;;;;;;6.22;5.38;;;486.70;1920.00;;;;;;5073838;28;20070;-59
2021/06/12 04:22:20;;;;;;;7.40;4.75;;;486.70;1920.00;;;;;;5073665;28;20024;-68
2021/06/12 04:24:46;;;;;;;7.90;5.38;;;486.70;1920.00;;;;;;5073755;28;20024;-58
2021/06/12 04:27:12;;;;;;;9.30;5.32;;;486.70;1920.00;;;;;;5073929;28;20021;-68
2021/06/12 04:29:38;;;;;;;7.57;5.32;;;486.80;1894.40;;;;;;5073626;28;20016;-68
2021/06/12 04:32:04;;;;;;;6.05;4.80;;;486.80;1920.00;;;;;;5073830;28;20024;-58
2021/06/12 04:34:30;;;;;;;9.20;5.40;;;486.80;1920.00;;;;;;5074073;28;20021;-57
2021/06/12 04:36:56;;;;;;;7.03;5.45;;;486.90;1920.00;;;;;;5073387;28;20028;-58
2021/06/12 04:39:22;;;;;;;5.22;4.45;;;486.90;1894.40;;;;;;5073545;28;20028;-58
2021/06/12 04:41:48;;;;;;;6.75;5.57;;;487.10;1868.80;;;;;;5073508;28;20058;-68
2021/06/12 04:44:14;;;;;;;9.65;5.40;;;487.10;1894.40;;;;;;5073543;28;20029;-58
2021/06/12 04:46:42;;;;;;;8.15;5.15;;;487.20;1868.80;;;;;;5073494;28;20025;-57
2021/06/12 04:49:08;;;;;;;7.00;5.78;;;512.00;1843.20;;;;;;5073383;28;20127;-57
2021/06/12 04:51:34;;;;;;;9.10;5.30;;;512.00;1843.20;;;;;;5073671;28;20020;-59
2021/06/12 04:54:00;;;;;;;9.73;5.85;;;512.10;1843.20;;;;;;5073332;28;20021;-58
2021/06/12 04:56:26;;;;;;;9.15;5.95;;;512.20;1843.20;;;;;;5071678;28;20103;-58
2021/06/12 04:58:52;;;;;;;6.85;5.70;;;512.20;1868.80;;;;;;5071282;28;20094;-58
2021/06/12 05:01:18;;;;;;;7.50;5.15;;;512.30;1817.60;;;;;;5072840;28;20013;-59
2021/06/12 05:03:44;;;;;;;6.00;4.78;;;512.40;1817.60;;;;;;5073164;28;20029;-58
2021/06/12 05:06:10;;;;;;;10.32;5.60;;;512.50;1817.60;;;;;;5072706;28;20492;-59
2021/06/12 05:08:36;;;;;;;8.20;5.53;;;512.50;1792.00;;;;;;5073063;28;20021;-58
2021/06/12 05:11:02;;;;;;;8.35;5.55;;;512.50;1817.60;;;;;;5072481;28;20492;-58
2021/06/12 05:13:28;;;;;;;10.43;4.85;;;512.60;1843.20;;;;;;5071767;28;20492;-58
2021/06/12 05:15:54;;;;;;;7.85;5.45;;;512.60;1843.20;;;;;;5069928;28;20021;-58
2021/06/12 05:18:21;;;;;;;7.00;5.45;;;512.60;1817.60;;;;;;5072603;28;20033;-58
2021/06/12 05:20:47;;;;;;;6.80;5.22;;;512.60;1817.60;;;;;;5072804;28;20017;-58
2021/06/12 05:23:13;;;;;;;7.60;5.32;;;512.60;1817.60;;;;;;5072201;28;20078;-66
2021/06/12 05:25:39;;;;;;;8.88;4.78;;;512.50;1843.20;;;;;;5071278;28;20020;-59
2021/06/12 05:28:05;;;;;;;8.20;4.88;;;512.60;1817.60;;;;;;5070174;28;20048;-60
2021/06/12 05:30:31;;;;;;;6.93;4.82;;;512.70;1817.60;;;;;;5069665;28;20021;-58
2021/06/12 05:32:57;;;;;;;7.28;4.80;;;512.70;1817.60;;;;;;5069638;28;20020;-58
2021/06/12 05:35:22;;;;;;;7.13;4.68;;;512.70;1817.60;;;;;;5069556;28;20021;-63
2021/06/12 05:37:49;;;;;;;9.43;5.40;;;512.70;1843.20;;;;;;5069700;28;20102;-58
2021/06/12 05:40:15;;;;;;;11.93;5.55;;;512.70;1817.60;;;;;;5069792;28;20112;-66
2021/06/12 05:42:41;;;;;;;7.07;5.50;;;512.90;1817.60;;;;;;5070519;28;20047;-60
2021/06/12 05:45:09;;;;;;;7.10;5.13;;;512.90;1817.60;;;;;;5071152;28;20048;-59
2021/06/12 05:47:36;;;;;;;10.63;5.40;;;537.60;1843.20;;;;;;5070794;28;20071;-62
2021/06/12 05:50:03;;;;;;;10.68;4.97;;;537.60;1843.20;;;;;;5071343;28;20025;-65
2021/06/12 05:52:29;;;;;;;6.88;5.00;;;537.60;1843.20;;;;;;5070495;28;20424;-62
2021/06/12 05:54:55;;;;;;;7.65;5.28;;;537.60;1843.20;;;;;;5071406;28;20020;-58
2021/06/12 05:57:21;;;;;;;10.60;4.93;;;537.60;1817.60;;;;;;5071422;28;20028;-63
2021/06/12 05:59:46;;;;;;;19.30;5.90;;;537.70;1843.20;;;;;;5070738;28;20076;-62
2021/06/12 06:02:12;;;;;;;9.13;5.85;;;537.80;1843.20;;;;;;5070965;28;20028;-60
2021/06/12 06:04:38;;;;;;;8.93;5.45;;;538.00;1817.60;;;;;;5071227;28;20021;-58
2021/06/12 06:07:04;;;;;;;10.65;5.47;;;538.00;1817.60;;;;;;5071687;28;20534;-58
2021/06/12 06:09:30;;;;;;;8.43;5.47;;;538.10;1843.20;;;;;;5073096;28;20016;-69
2021/06/12 06:11:56;;;;;;;12.45;5.93;;;538.10;1843.20;;;;;;5074689;28;20064;-60
2021/06/12 06:14:22;;;;;;;8.98;5.75;;;538.20;1817.60;;;;;;5075539;28;20385;-57
2021/06/12 06:16:47;;;;;;;12.40;5.57;;;538.20;1843.20;;;;;;5076030;28;20032;-58
2021/06/12 06:19:14;;;;;;;11.02;6.30;;;538.30;1843.20;;;;;;5076193;28;20032;-57
2021/06/12 06:21:40;;;;;;;14.48;6.65;;;538.40;1843.20;;;;;;5075895;28;20477;-57
2021/06/12 06:24:07;;;;;;;14.57;6.50;;;563.20;1868.80;;;;;;5076255;28;20036;-61
2021/06/12 06:26:32;;;;;;;14.45;6.80;;;563.20;1817.60;;;;;;5076226;28;20020;-57
2021/06/12 06:28:58;;;;;;;6.47;5.80;;;563.40;1817.60;;;;;;5075916;28;20024;-58
2021/06/12 06:31:24;;;;;;;12.25;6.10;;;563.50;1792.00;;;;;;5075336;28;20071;-59
2021/06/12 06:33:50;;;;;;;8.60;5.70;;;563.70;1792.00;;;;;;5074470;28;20020;-59
2021/06/12 06:36:16;;;;;;;8.57;6.18;;;563.80;1766.40;;;;;;5074265;28;20546;-59
2021/06/12 06:38:42;;;;;;;7.65;6.10;;;563.90;1766.40;;;;;;5074356;28;20040;-66
2021/06/12 06:41:09;;;;;;;8.32;5.68;;;564.00;1740.80;;;;;;5074271;28;20103;-70
2021/06/12 06:43:35;;;;;;;9.45;6.22;;;588.80;1740.80;;;;;;5074334;28;20024;-66
2021/06/12 06:46:01;;;;;;;7.15;5.45;;;588.80;1715.20;;;;;;5074302;28;20040;-66
2021/06/12 06:48:26;;;;;;;7.60;5.65;;;589.00;1689.60;;;;;;5074218;28;20027;-67
2021/06/12 06:50:52;;;;;;;8.52;6.35;;;589.10;1689.60;;;;;;5071813;28;20039;-67
2021/06/12 06:53:18;;;;;;;8.07;5.65;;;589.20;1689.60;;;;;;5074020;28;20050;-71
2021/06/12 06:55:44;;;;;;;9.85;5.88;;;589.40;1689.60;;;;;;5074361;28;20033;-70
2021/06/12 06:58:10;;;;;;;9.52;5.80;;;589.30;1689.60;;;;;;5073704;28;20052;-70
2021/06/12 07:00:36;;;;;;;7.00;5.63;;;589.40;1664.00;;;;;;5074679;28;20013;-64
2021/06/12 07:03:02;;;;;;;12.57;6.00;;;589.50;1664.00;;;;;;5075129;28;20024;-63
2021/06/12 07:05:28;;;;;;;8.45;5.53;;;589.60;1664.00;;;;;;5075185;28;20020;-68
2021/06/12 07:07:54;;;;;;;9.35;6.35;;;589.70;1664.00;;;;;;5074519;28;20393;-67
2021/06/12 07:10:20;;;;;;;11.25;6.72;;;589.70;1664.00;;;;;;5072652;28;20118;-67
2021/06/12 07:12:46;;;;;;;9.02;6.28;;;614.40;1664.00;;;;;;5072449;28;20473;-64
2021/06/12 07:15:12;;;;;;;8.45;6.28;;;614.40;1715.20;;;;;;5074247;28;20032;-69
2021/06/12 07:17:38;;;;;;;8.20;5.22;;;614.40;1689.60;;;;;;5074516;28;20032;-68
2021/06/12 07:20:06;;;;;;;12.90;5.75;;;614.40;1689.60;;;;;;5074220;28;20024;-64
2021/06/12 07:22:32;;;;;;;8.15;5.35;;;614.40;1689.60;;;;;;5074857;28;20032;-66
2021/06/12 07:24:58;;;;;;;9.70;5.78;;;614.50;1689.60;;;;;;5074784;28;20469;-69
2021/06/12 07:27:24;;;;;;;6.97;5.10;;;614.50;1689.60;;;;;;5074560;28;20036;-67
2021/06/12 07:29:50;;;;;;;8.02;6.00;;;614.50;1664.00;;;;;;5074642;28;20027;-64
2021/06/12 07:32:17;;;;;;;6.97;5.13;;;614.40;1689.60;;;;;;5074261;28;20032;-69
2021/06/12 07:34:42;;;;;;;7.30;5.15;;;614.50;1689.60;;;;;;5074558;28;20531;-60
2021/06/12 07:37:08;;;;;;;8.38;5.32;;;614.50;1689.60;;;;;;5074596;28;20112;-63
2021/06/12 07:39:34;;;;;;;6.40;5.20;;;614.60;1664.00;;;;;;5074685;28;20379;-63
2021/06/12 07:42:00;;;;;;;6.68;5.07;;;614.60;1638.40;;;;;;5074505;28;20107;-65
2021/06/12 07:44:26;;;;;;;7.35;4.80;;;614.70;1638.40;;;;;;5074417;28;20039;-62
2021/06/12 07:46:52;;;;;;;7.88;5.07;;;614.80;1638.40;;;;;;5074380;28;20033;-59
2021/06/12 07:49:18;;;;;;;8.02;4.63;;;614.70;1638.40;;;;;;5073407;28;20044;-60
2021/06/12 07:51:45;;;;;;;8.07;4.80;;;614.70;1638.40;;;;;;5074406;28;20025;-61
2021/06/12 07:54:11;;;;;;;7.82;4.70;;;614.80;1612.80;;;;;;5074342;28;20431;-60
2021/06/12 07:56:37;;;;;;;5.22;4.72;;;614.80;1612.80;;;;;;5074190;28;20116;-60
2021/06/12 07:59:03;;;;;;;11.30;4.72;;;614.90;1638.40;;;;;;5072808;28;20076;-64
2021/06/12 08:01:29;;;;;;;8.93;5.30;;;614.90;1638.40;;;;;;5074214;28;20017;-67
2021/06/12 08:03:55;;;;;;;6.00;5.10;;;614.90;1612.80;;;;;;5074281;28;20125;-71
2021/06/12 08:06:21;;;;;;;7.10;5.03;;;614.90;1612.80;;;;;;5074196;28;20477;-62
2021/06/12 08:08:47;;;;;;;10.48;5.32;;;614.90;1612.80;;;;;;5075145;28;20373;-60
2021/06/12 08:11:13;;;;;;;7.15;4.82;;;615.00;1612.80;;;;;;5074372;28;20020;-65
2021/06/12 08:13:39;;;;;;;7.28;4.78;;;615.00;1612.80;;;;;;5073991;28;20111;-64
2021/06/12 08:16:05;;;;;;;7.72;5.15;;;614.90;1612.80;;;;;;5073980;28;20021;-64
2021/06/12 08:18:32;;;;;;;6.32;4.63;;;614.90;1612.80;;;;;;5072593;28;20040;-64
2021/06/12 08:20:58;;;;;;;6.55;4.80;;;614.90;1612.80;;;;;;5073822;28;20066;-59
2021/06/12 08:23:24;;;;;;;8.68;4.85;;;614.90;1638.40;;;;;;5072611;28;20031;-62
2021/06/12 08:25:50;;;;;;;9.38;4.75;;;614.90;1612.80;;;;;;5074076;28;20461;-59
2021/06/12 08:28:17;;;;;;;10.45;4.55;;;614.90;1638.40;;;;;;5073751;28;20078;-63
2021/06/12 08:30:43;;;;;;;8.70;4.85;;;614.90;1638.40;;;;;;5073582;28;20027;-67
2021/06/12 08:33:09;;;;;;;6.28;3.83;;;615.00;1638.40;;;;;;5073503;28;20103;-65
2021/06/12 08:35:36;;;;;;;8.30;4.40;;;615.00;1587.20;;;;;;5073702;28;20025;-62
2021/06/12 08:38:03;;;;;;;6.13;4.60;;;615.00;1612.80;;;;;;5073647;28;20036;-65
2021/06/12 08:40:30;;;;;;;8.57;4.43;;;615.00;1638.40;;;;;;5073900;28;20031;-63
2021/06/12 08:42:57;;;;;;;6.38;4.20;;;615.00;1638.40;;;;;;5073654;28;20062;-64
2021/06/12 08:45:28;;;;;;;9.98;4.32;;;615.10;1638.40;;;;;;5073523;28;20021;-66
2021/06/12 08:47:56;;;;;;;6.60;4.75;;;615.10;1612.80;;;;;;5073581;28;20397;-59
2021/06/12 08:50:25;;;;;;;4.32;3.72;;;615.20;1612.80;;;;;;5073840;28;20020;-68
2021/06/12 08:52:53;;;;;;;11.70;4.80;;;615.20;1587.20;;;;;;5072331;28;20033;-61
2021/06/12 08:55:20;;;;;;;7.63;4.78;;;615.30;1612.80;;;;;;5073459;28;20169;-61
2021/06/12 08:57:46;;;;;;;7.57;4.57;;;615.30;1612.80;;;;;;5073175;28;20037;-60
2021/06/12 09:00:14;;;;;;;7.97;4.28;;;615.30;1612.80;;;;;;5073429;28;20486;-66
2021/06/12 09:03:06;;;;;;;5.35;4.40;;;615.30;1587.20;;;;;;5073336;28;20028;-62
2021/06/12 09:05:53;;;;;;;8.63;4.28;;;615.30;1587.20;;;;;;5073413;28;20020;-66
2021/06/12 09:08:26;;;;;;;5.28;4.00;;;615.30;1561.60;;;;;;5073624;28;20028;-59
2021/06/12 09:10:55;;;;;;;12.88;4.90;;;640.00;1561.60;;;;;;5073576;28;20021;-60
2021/06/12 09:13:39;;;;;;;6.35;4.00;;;640.00;1561.60;;;;;;5073579;28;20465;-63
2021/06/12 09:16:07;;;;;;;12.05;3.33;;;640.00;1536.00;;;;;;5074073;28;20028;-65
2021/06/12 09:18:36;;;;;;;4.60;3.78;;;640.10;1536.00;;;;;;5073235;28;20035;-64
2021/06/12 09:21:03;;;;;;;20.38;4.55;;;640.10;1510.40;;;;;;5073209;28;20013;-64
2021/06/12 09:23:41;;;;;;;9.77;4.75;;;640.10;1510.40;;;;;;5073199;28;20025;-61
2021/06/12 09:26:08;;;;;;;7.68;4.13;;;640.20;1561.60;;;;;;5073116;28;20045;-64
2021/06/12 09:28:54;;;;;;;13.57;3.97;;;640.30;1536.00;;;;;;5073873;28;20032;-62
2021/06/12 09:31:26;;;;;;;8.88;3.95;;;640.40;1536.00;;;;;;5073339;28;20027;-64
2021/06/12 09:33:55;;;;;;;9.02;4.30;;;640.40;1484.80;;;;;;5072572;28;20378;-64
2021/06/12 09:36:42;;;;;;;4.22;3.42;;;640.50;1484.80;;;;;;5072464;28;20013;-69
2021/06/12 09:39:22;;;;;;;5.13;3.88;;;640.50;1484.80;;;;;;5072891;28;20040;-62
2021/06/12 09:41:50;;;;;;;4.72;4.18;;;640.60;1510.40;;;;;;5073009;28;20028;-59
2021/06/12 09:44:40;;;;;;;4.78;4.00;;;640.60;1510.40;;;;;;5076850;28;20027;-65
2021/06/12 09:47:23;;;;;;;8.82;3.17;;;640.60;1484.80;;;;;;5073913;28;20050;-62
2021/06/12 09:49:50;;;;;;;3.75;3.35;;;640.60;1459.20;;;;;;5076828;28;20346;-65
2021/06/12 09:52:18;;;;;;;5.47;3.80;;;640.60;1484.80;;;;;;5073680;28;20052;-61
2021/06/12 09:54:45;;;;;;;9.75;4.53;;;640.60;1459.20;;;;;;5076136;28;20028;-61
2021/06/12 09:57:14;;;;;;;6.63;3.60;;;640.70;1484.80;;;;;;5076089;28;20028;-67
2021/06/12 09:59:47;;;;;;;7.65;3.25;;;640.80;1484.80;;;;;;5075957;28;20102;-60
2021/06/12 10:02:34;;;;;;;4.20;3.35;;;640.80;1459.20;;;;;;5076095;28;20465;-59
2021/06/12 10:05:00;;;;;;;5.85;3.85;;;640.80;1459.20;;;;;;5074235;28;20028;-60
2021/06/12 10:07:26;;;;;;;11.60;3.33;;;640.80;1382.40;;;;;;5076442;28;20021;-60
2021/06/12 10:09:53;;;;;;;8.15;2.97;;;640.90;1433.60;;;;;;5076355;28;20389;-59
2021/06/12 10:12:21;;;;;;;6.28;4.10;;;640.90;1408.00;;;;;;5076962;28;20027;-61
2021/06/12 10:14:51;;;;;;;6.90;4.13;;;665.60;1459.20;;;;;;5076859;28;20028;-60
2021/06/12 10:17:17;;;;;;;8.50;3.40;;;665.70;1484.80;;;;;;5076160;28;20032;-60
2021/06/12 10:19:44;;;;;;;6.25;2.80;;;665.70;1408.00;;;;;;5077044;28;20028;-62
2021/06/12 10:22:10;;;;;;;5.25;3.15;;;665.80;1382.40;;;;;;5075631;28;20040;-60
2021/06/12 10:24:39;;;;;;;10.57;3.90;;;665.80;1382.40;;;;;;5075635;28;20025;-63
2021/06/12 10:27:05;;;;;;;6.68;4.25;;;665.90;1408.00;;;;;;5075894;28;20048;-59
2021/06/12 10:29:32;;;;;;;4.35;2.88;;;665.90;1382.40;;;;;;5075923;28;20028;-59
2021/06/12 10:31:59;;;;;;;5.65;3.10;;;666.00;1382.40;;;;;;5076093;28;20043;-69
2021/06/12 10:34:27;;;;;;;7.35;3.53;;;666.00;1382.40;;;;;;5074633;28;20020;-60
2021/06/12 10:36:59;;;;;;;6.68;3.13;;;666.00;1382.40;;;;;;5073711;28;20035;-65
2021/06/12 10:39:26;;;;;;;9.10;3.17;;;666.10;1356.80;;;;;;5073898;28;20032;-60
2021/06/12 10:42:19;;;;;;;8.43;2.88;;;666.10;1305.60;;;;;;5074500;28;20174;-59
2021/06/12 10:44:53;;;;;;;4.63;3.42;;;666.10;1331.20;;;;;;5074076;28;20104;-62
2021/06/12 10:47:49;;;;;;;3.47;2.95;;;666.20;1382.40;;;;;;5075432;28;20023;-59
2021/06/12 10:50:36;;;;;;;5.35;3.05;;;666.20;1356.80;;;;;;5074942;28;20081;-60
2021/06/12 10:53:19;;;;;;;3.10;2.70;;;666.20;1356.80;;;;;;5075643;28;20025;-59
2021/06/12 10:55:47;;;;;;;16.00;3.80;;;666.30;1356.80;;;;;;5074839;28;20024;-60
2021/06/12 10:58:35;;;;;;;7.47;2.97;;;666.30;1356.80;;;;;;5075228;28;20057;-59
2021/06/12 11:01:07;;;;;;;7.35;2.90;;;666.30;1280.00;;;;;;5075733;28;20052;-60
2021/06/12 11:04:37;;;;;;;4.63;2.67;;;666.30;1305.60;;;;;;5075453;28;20040;-60
2021/06/12 11:09:29;;;;;;;6.03;3.28;;;666.30;1356.80;;;;;;5075384;28;20059;-61
2021/06/12 11:12:18;;;;;;;6.00;2.92;;;666.20;1331.20;;;;;;5075262;28;20027;-60
2021/06/12 11:15:01;;;;;;;6.32;2.88;;;666.30;1331.20;;;;;;5072150;28;20081;-61
2021/06/12 11:17:27;;;;;;;6.47;2.83;;;666.40;1305.60;;;;;;5075688;28;20032;-64
2021/06/12 11:20:01;;;;;;;6.28;2.78;;;666.50;1305.60;;;;;;5075117;28;20055;-59
2021/06/12 11:22:40;;;;;;;6.90;2.63;;;666.50;1280.00;;;;;;5075330;28;20027;-59
2021/06/12 11:25:09;;;;;;;2.90;2.33;;;666.40;1280.00;;;;;;5074993;28;20052;-59
2021/06/12 11:27:39;;;;;;;4.70;2.60;;;691.20;1305.60;;;;;;5074956;28;20107;-59
2021/06/12 11:30:20;;;;;;;6.95;2.50;;;691.20;1280.00;;;;;;5074840;28;20477;-59
2021/06/12 11:33:08;;;;;;;3.42;2.28;;;666.50;1280.00;;;;;;5074852;28;20024;-61
2021/06/12 11:35:56;;;;;;;6.30;2.95;;;666.50;1280.00;;;;;;5073533;28;20385;-62
2021/06/12 11:38:37;;;;;;;5.22;2.85;;;691.20;1305.60;;;;;;5074646;28;20039;-60
2021/06/12 11:41:07;;;;;;;3.78;2.72;;;691.30;1280.00;;;;;;5074650;28;20012;-59
2021/06/12 11:43:37;;;;;;;7.10;3.75;;;691.30;1305.60;;;;;;5074661;28;20023;-60
2021/06/12 11:46:28;;;;;;;7.90;2.88;;;691.20;1280.00;;;;;;5073212;28;20098;-59
2021/06/12 11:48:55;;;;;;;4.80;2.88;;;691.30;1331.20;;;;;;5067681;28;20033;-59
2021/06/12 11:51:33;;;;;;;7.55;2.78;;;691.40;1280.00;;;;;;5074729;28;20070;-63
2021/06/12 11:54:14;;;;;;;3.40;2.47;;;691.40;1254.40;;;;;;5074462;28;20105;-61
2021/06/12 11:56:45;;;;;;;2.83;2.33;;;691.50;1280.00;;;;;;5074606;28;20067;-59
2021/06/12 11:59:14;;;;;;;4.55;2.40;;;691.60;1254.40;;;;;;5073937;28;20067;-59
2021/06/12 12:01:57;;;;;;;9.82;2.60;;;691.50;1280.00;;;;;;5074248;28;20150;-60
2021/06/12 12:04:24;;;;;;;7.13;2.67;;;691.70;1228.80;;;;;;5074232;28;20174;-60
2021/06/12 12:06:54;;;;;;;2.95;2.05;;;691.70;1228.80;;;;;;5073140;28;20566;-60
2021/06/12 12:09:35;;;;;;;4.32;2.08;;;691.80;1203.20;;;;;;5073939;28;20035;-59
2021/06/12 12:12:06;;;;;;;6.75;2.10;;;691.80;1177.60;;;;;;5074154;28;20013;-60
2021/06/12 12:14:40;;;;;;;3.50;2.00;;;691.90;1177.60;;;;;;5073935;28;20028;-60
2021/06/12 12:17:20;;;;;;;4.65;2.25;;;692.00;1152.00;;;;;;5073689;28;20029;-59
2021/06/12 12:20:02;;;;;;;2.60;1.40;;;692.00;1126.40;;;;;;5073922;28;20024;-59
2021/06/12 12:22:44;;;;;;;4.55;1.48;;;692.10;1100.80;;;;;;5073926;28;20027;-59
2021/06/12 12:25:12;;;;;;;2.45;1.60;;;716.80;1024.00;;;;;;5073794;28;20485;-60
2021/06/12 12:27:39;;;;;;;3.38;1.80;;;716.80;1126.40;;;;;;5072469;28;20020;-59